createdAt,value
2022-08-14T00:01:02.254Z,100180.97
2022-08-14T00:03:36.292Z,100184.53
2022-08-14T00:06:02.619Z,100187.78
2022-08-14T00:08:49.009Z,100185.88
2022-08-14T00:11:15.892Z,100191.69
2022-08-14T00:13:43.355Z,100182.84
2022-08-14T00:16:41.499Z,100172.59
2022-08-14T00:19:06.967Z,100182.31
2022-08-14T00:21:45.259Z,100176.00
2022-08-14T00:24:11.557Z,100171.94
2022-08-14T00:26:39.161Z,100164.63
2022-08-14T00:29:05.958Z,100167.34
2022-08-14T00:31:44.284Z,100167.72
2022-08-14T00:34:35.516Z,100166.34
2022-08-14T00:36:59.250Z,100162.41
2022-08-14T00:39:25.853Z,100167.34
2022-08-14T00:41:52.226Z,100175.50
2022-08-14T00:44:27.630Z,100174.34
2022-08-14T00:46:59.802Z,100168.56
2022-08-14T00:49:28.658Z,100160.22
2022-08-14T00:51:56.586Z,100154.78
2022-08-14T00:54:24.562Z,100152.91
2022-08-14T00:56:51.557Z,100159.53
2022-08-14T00:59:23.217Z,100153.94
2022-08-14T01:01:51.310Z,100158.19
2022-08-14T01:04:38.139Z,100161.94
2022-08-14T01:07:08.258Z,100171.28
2022-08-14T01:09:35.470Z,100158.00
2022-08-14T01:12:03.186Z,100158.34
2022-08-14T01:14:29.842Z,100165.16
2022-08-14T01:16:56.143Z,100158.53
2022-08-14T01:19:41.313Z,100160.56
2022-08-14T01:22:07.836Z,100157.69
2022-08-14T01:24:39.142Z,100154.28
2022-08-14T01:27:07.172Z,100154.94
2022-08-14T01:29:58.223Z,100155.28
2022-08-14T01:32:24.062Z,100153.22
2022-08-14T01:35:18.573Z,100154.78
2022-08-14T01:37:38.257Z,100161.91
2022-08-14T01:40:11.120Z,100155.06
2022-08-14T01:42:37.488Z,100164.31
2022-08-14T01:45:11.503Z,100158.84
2022-08-14T01:47:38.818Z,100165.84
2022-08-14T01:50:06.346Z,100167.88
2022-08-14T01:52:34.178Z,100162.78
2022-08-14T01:55:18.936Z,100161.38
2022-08-14T01:57:49.386Z,100158.66
2022-08-14T02:00:28.464Z,100154.56
2022-08-14T02:02:58.122Z,100154.91
2022-08-14T02:05:25.168Z,100153.19
2022-08-14T02:07:55.784Z,100163.69
2022-08-14T02:10:26.220Z,100165.41
2022-08-14T02:12:56.897Z,100150.97
2022-08-14T02:15:23.700Z,100152.19
2022-08-14T02:17:49.999Z,100148.19
2022-08-14T02:20:17.785Z,100152.28
2022-08-14T02:22:52.001Z,100143.47
2022-08-14T02:25:20.791Z,100150.59
2022-08-14T02:28:23.644Z,100149.91
2022-08-14T02:30:38.461Z,100153.81
2022-08-14T02:33:05.553Z,100147.53
2022-08-14T02:35:32.735Z,100145.66
2022-08-14T02:37:59.518Z,100143.94
2022-08-14T02:40:32.131Z,100134.59
2022-08-14T02:43:00.718Z,100129.66
2022-08-14T02:45:38.027Z,100135.44
2022-08-14T02:49:01.293Z,100130.69
2022-08-14T02:50:57.159Z,100136.13
2022-08-14T02:53:27.330Z,100134.06
2022-08-14T02:55:56.295Z,100124.91
2022-08-14T02:58:30.308Z,100121.16
2022-08-14T03:00:58.036Z,100129.59
2022-08-14T03:03:25.042Z,100130.78
2022-08-14T03:05:52.063Z,100134.69
2022-08-14T03:08:20.735Z,100131.97
2022-08-14T03:10:48.925Z,100127.88
2022-08-14T03:13:20.864Z,100127.91
2022-08-14T03:15:55.833Z,100127.91
2022-08-14T03:18:31.938Z,100126.06
2022-08-14T03:20:58.883Z,100130.59
2022-08-14T03:23:25.380Z,100126.00
2022-08-14T03:25:52.137Z,100128.22
2022-08-14T03:28:33.378Z,100126.19
2022-08-14T03:31:00.182Z,100132.97
2022-08-14T03:33:27.818Z,100130.59
2022-08-14T03:36:05.346Z,100130.41
2022-08-14T03:39:14.043Z,100120.03
2022-08-14T03:41:33.180Z,100122.09
2022-08-14T03:45:25.439Z,100120.91
2022-08-14T03:46:54.721Z,100125.16
2022-08-14T03:49:28.350Z,100126.00
2022-08-14T03:51:55.070Z,100126.84
2022-08-14T03:54:21.390Z,100116.53
2022-08-14T03:56:50.158Z,100118.81
2022-08-14T03:59:18.077Z,100107.00
2022-08-14T04:01:54.078Z,100103.84
2022-08-14T04:04:27.963Z,100110.53
2022-08-14T04:06:54.710Z,100106.69
2022-08-14T04:09:26.659Z,100101.00
2022-08-14T04:11:53.321Z,100111.88
2022-08-14T04:14:20.065Z,100114.25
2022-08-14T04:16:47.329Z,100115.44
2022-08-14T04:19:15.900Z,100115.81
2022-08-14T04:22:03.277Z,100120.97
2022-08-14T04:24:29.188Z,100119.66
2022-08-14T04:26:55.685Z,100120.84
2022-08-14T04:29:22.049Z,100115.91
2022-08-14T04:32:59.062Z,100110.69
2022-08-14T04:34:42.027Z,100113.75
2022-08-14T04:37:27.066Z,100109.50
2022-08-14T04:40:15.121Z,100111.91
2022-08-14T04:43:00.171Z,100108.66
2022-08-14T04:45:29.710Z,100099.50
2022-08-14T04:48:39.048Z,100101.56
2022-08-14T04:51:01.252Z,100106.16
2022-08-14T04:53:34.790Z,100106.16
2022-08-14T04:56:02.091Z,100098.84
2022-08-14T04:58:32.235Z,100090.50
2022-08-14T05:00:59.455Z,100088.09
2022-08-14T05:03:26.215Z,100084.84
2022-08-14T05:05:54.419Z,100089.06
2022-08-14T05:08:32.277Z,100088.53
2022-08-14T05:11:07.130Z,100093.28
2022-08-14T05:14:16.177Z,100107.59
2022-08-14T05:16:29.197Z,100096.81
2022-08-14T05:19:19.125Z,100093.34
2022-08-14T05:21:57.236Z,100091.94
2022-08-14T05:24:27.773Z,100087.78
2022-08-14T05:26:54.175Z,100092.34
2022-08-14T05:29:21.622Z,100085.63
2022-08-14T05:31:47.959Z,100084.06
2022-08-14T05:34:14.308Z,100089.13
2022-08-14T05:36:42.456Z,100086.56
2022-08-14T05:39:08.760Z,100084.94
2022-08-14T05:41:52.376Z,100090.00
2022-08-14T05:44:20.331Z,100086.03
2022-08-14T05:46:46.649Z,100072.94
2022-08-14T05:49:13.767Z,100075.22
2022-08-14T05:51:41.094Z,100074.53
2022-08-14T05:54:10.185Z,100073.84
2022-08-14T05:56:39.648Z,100069.22
2022-08-14T05:59:05.968Z,100072.34
2022-08-14T06:01:33.788Z,100070.09
2022-08-14T06:04:00.256Z,100070.59
2022-08-14T06:06:26.611Z,100062.41
2022-08-14T06:08:52.909Z,100068.69
2022-08-14T06:11:27.839Z,100072.84
2022-08-14T06:13:57.219Z,100066.88
2022-08-14T06:16:23.521Z,100067.16
2022-08-14T06:18:52.693Z,100058.03
2022-08-14T06:21:19.532Z,100045.84
2022-08-14T06:23:48.984Z,100038.53
2022-08-14T06:26:15.443Z,100042.56
2022-08-14T06:28:45.665Z,100047.66
2022-08-14T06:31:12.038Z,100037.75
2022-08-14T06:35:03.055Z,100034.91
2022-08-14T06:36:24.757Z,100024.56
2022-08-14T06:38:51.048Z,100037.47
2022-08-14T06:41:20.746Z,100031.94
2022-08-14T06:44:02.499Z,100029.78
2022-08-14T06:46:34.368Z,100029.44
2022-08-14T06:49:03.442Z,100029.53
2022-08-14T06:51:38.802Z,100029.53
2022-08-14T06:54:11.075Z,100015.47
2022-08-14T06:56:38.266Z,100013.47
2022-08-14T06:59:05.250Z,100016.25
2022-08-14T07:01:50.228Z,100011.69
2022-08-14T07:04:41.521Z,100006.59
2022-08-14T07:07:07.818Z,100008.75
2022-08-14T07:09:43.573Z,100013.84
2022-08-14T07:12:56.112Z,99998.25
2022-08-14T07:15:03.176Z,99999.94
2022-08-14T07:17:32.050Z,99992.94
2022-08-14T07:20:00.544Z,99994.09
2022-08-14T07:22:33.017Z,99992.91
2022-08-14T07:25:13.669Z,99992.25
2022-08-14T07:27:40.772Z,99995.28
2022-08-14T07:30:09.226Z,100000.50
2022-08-14T07:32:55.349Z,99993.13
2022-08-14T07:35:21.663Z,99991.38
2022-08-14T07:37:49.963Z,99990.34
2022-08-14T07:40:27.459Z,99992.88
2022-08-14T07:42:56.148Z,99989.56
2022-08-14T07:45:22.459Z,99983.31
2022-08-14T07:47:48.772Z,99982.75
2022-08-14T07:50:16.625Z,99984.84
2022-08-14T07:52:46.623Z,99974.44
2022-08-14T07:55:13.059Z,99980.28
2022-08-14T07:57:40.040Z,99975.44
2022-08-14T08:00:09.570Z,99974.38
2022-08-14T08:02:57.106Z,99965.50
2022-08-14T08:05:26.722Z,99963.75
2022-08-14T08:07:53.045Z,99970.34
2022-08-14T08:11:01.493Z,99960.09
2022-08-14T08:13:17.832Z,99957.09
2022-08-14T08:15:44.725Z,99965.19
2022-08-14T08:18:27.790Z,99961.78
2022-08-14T08:20:59.637Z,99960.31
2022-08-14T08:23:40.015Z,99959.69
2022-08-14T08:26:09.724Z,99962.25
2022-08-14T08:28:36.020Z,99951.75
2022-08-14T08:31:02.319Z,99955.56
2022-08-14T08:33:32.023Z,99956.41
2022-08-14T08:35:58.704Z,99961.81
2022-08-14T08:39:18.146Z,99957.25
2022-08-14T08:41:11.729Z,99958.50
2022-08-14T08:43:38.295Z,99946.47
2022-08-14T08:46:04.626Z,99947.53
2022-08-14T08:48:31.643Z,99941.19
2022-08-14T08:51:02.692Z,99937.38
2022-08-14T08:53:32.043Z,99938.19
2022-08-14T08:55:58.836Z,99933.03
2022-08-14T08:58:25.662Z,99920.88
2022-08-14T09:00:54.046Z,99931.09
2022-08-14T09:03:21.487Z,99925.00
2022-08-14T09:05:47.809Z,99910.09
2022-08-14T09:08:31.060Z,99916.44
2022-08-14T09:10:59.348Z,99913.41
2022-08-14T09:13:26.818Z,99911.66
2022-08-14T09:15:56.811Z,99904.22
2022-08-14T09:18:23.114Z,99910.78
2022-08-14T09:20:49.500Z,99909.75
2022-08-14T09:23:16.834Z,99900.13
2022-08-14T09:26:00.464Z,99897.38
2022-08-14T09:28:28.031Z,99895.00
2022-08-14T09:30:54.847Z,99891.41
2022-08-14T09:33:22.843Z,99889.22
2022-08-14T09:35:49.705Z,99883.25
2022-08-14T09:38:26.178Z,99876.81
2022-08-14T09:40:53.708Z,99878.56
2022-08-14T09:43:22.363Z,99875.38
2022-08-14T09:45:53.511Z,99876.06
2022-08-14T09:48:20.229Z,99869.16
2022-08-14T09:50:54.086Z,99865.13
2022-08-14T09:53:20.503Z,99853.78
2022-08-14T09:55:47.074Z,99849.72
2022-08-14T09:58:19.974Z,99846.97
2022-08-14T10:00:49.295Z,99841.16
2022-08-14T10:03:15.654Z,99839.88
2022-08-14T10:05:42.029Z,99836.63
2022-08-14T10:08:14.920Z,99830.16
2022-08-14T10:10:41.782Z,99835.97
2022-08-14T10:13:08.123Z,99827.72
2022-08-14T10:15:35.707Z,99826.91
2022-08-14T10:18:01.991Z,99814.84
2022-08-14T10:20:40.670Z,99809.66
2022-08-14T10:23:13.573Z,99809.25
2022-08-14T10:25:43.471Z,99812.91
2022-08-14T10:28:39.379Z,99803.09
2022-08-14T10:30:56.056Z,99798.59
2022-08-14T10:33:22.353Z,99792.38
2022-08-14T10:35:48.810Z,99789.75
2022-08-14T10:38:15.127Z,99786.75
2022-08-14T10:40:52.225Z,99777.97
2022-08-14T10:43:25.503Z,99775.00
2022-08-14T10:45:59.640Z,99766.94
2022-08-14T10:48:37.145Z,99775.50
2022-08-14T10:51:08.455Z,99780.03
2022-08-14T10:53:37.026Z,99764.91
2022-08-14T10:56:06.985Z,99748.34
2022-08-14T10:58:48.919Z,99739.72
2022-08-14T11:01:15.415Z,99746.09
2022-08-14T11:03:56.979Z,99756.19
2022-08-14T11:06:24.764Z,99761.56
2022-08-14T11:08:52.044Z,99765.03
2022-08-14T11:11:21.384Z,99762.25
2022-08-14T11:13:48.555Z,99753.28
2022-08-14T11:16:18.216Z,99749.34
2022-08-14T11:18:46.223Z,99767.72
2022-08-14T11:21:18.552Z,99741.53
2022-08-14T11:23:49.250Z,99744.88
2022-08-14T11:26:19.972Z,99735.03
2022-08-14T11:28:48.709Z,99736.91
2022-08-14T11:31:16.686Z,99729.84
2022-08-14T11:33:43.111Z,99744.06
2022-08-14T11:36:17.738Z,99742.00
2022-08-14T11:38:48.204Z,99739.44
2022-08-14T11:41:17.154Z,99733.22
2022-08-14T11:43:46.866Z,99733.59
2022-08-14T11:46:30.451Z,99728.03
2022-08-14T11:49:05.423Z,99724.38
2022-08-14T11:51:36.100Z,99734.22
2022-08-14T11:54:19.631Z,99723.03
2022-08-14T11:56:49.811Z,99723.94
2022-08-14T11:59:17.918Z,99733.22
2022-08-14T12:01:46.212Z,99723.88
2022-08-14T12:04:32.209Z,99739.88
2022-08-14T12:07:01.064Z,99735.97
2022-08-14T12:09:27.912Z,99737.09
2022-08-14T12:11:54.210Z,99740.56
2022-08-14T12:14:30.211Z,99731.63
2022-08-14T12:17:01.936Z,99733.00
2022-08-14T12:19:28.622Z,99724.50
2022-08-14T12:21:59.897Z,99727.84
2022-08-14T12:24:35.737Z,99721.34
2022-08-14T12:27:03.407Z,99715.59
2022-08-14T12:29:29.748Z,99718.38
2022-08-14T12:31:58.445Z,99713.97
2022-08-14T12:34:26.129Z,99711.06
2022-08-14T12:36:52.433Z,99709.28
2022-08-14T12:39:18.778Z,99695.63
2022-08-14T12:41:45.796Z,99699.44
2022-08-14T12:44:21.504Z,99703.25
2022-08-14T12:46:49.061Z,99693.06
2022-08-14T12:49:16.961Z,99698.44
2022-08-14T12:51:44.054Z,99686.72
2022-08-14T12:54:18.565Z,99688.66
2022-08-14T12:56:54.182Z,99679.81
2022-08-14T12:59:20.620Z,99684.72
2022-08-14T13:01:59.862Z,99676.38
2022-08-14T13:04:31.171Z,99670.31
2022-08-14T13:06:57.450Z,99671.78
2022-08-14T13:09:35.814Z,99664.53
2022-08-14T13:12:34.833Z,99669.56
2022-08-14T13:14:52.768Z,99653.53
2022-08-14T13:17:18.994Z,99654.97
2022-08-14T13:19:45.622Z,99654.59
2022-08-14T13:22:28.879Z,99645.56
2022-08-14T13:24:58.274Z,99633.47
2022-08-14T13:27:24.650Z,99626.03
2022-08-14T13:29:53.762Z,99621.47
2022-08-14T13:32:20.059Z,99615.22
2022-08-14T13:34:46.859Z,99621.47
2022-08-14T13:37:14.171Z,99620.00
2022-08-14T13:39:40.639Z,99610.44
2022-08-14T13:42:13.423Z,99609.31
2022-08-14T13:44:42.612Z,99600.00
2022-08-14T13:47:09.527Z,99595.25
2022-08-14T13:49:37.406Z,99582.72
2022-08-14T13:52:04.245Z,99574.34
2022-08-14T13:54:42.117Z,99569.31
2022-08-14T13:57:08.363Z,99580.22
2022-08-14T13:59:37.992Z,99569.69
2022-08-14T14:02:05.069Z,99570.81
2022-08-14T14:04:31.474Z,99567.13
2022-08-14T14:06:58.711Z,99554.91
2022-08-14T14:09:25.434Z,99555.88
2022-08-14T14:11:52.794Z,99550.59
2022-08-14T14:14:29.789Z,99546.81
2022-08-14T14:17:05.757Z,99556.22
2022-08-14T14:19:34.847Z,99544.44
2022-08-14T14:22:01.530Z,99542.03
2022-08-14T14:24:34.547Z,99541.69
2022-08-14T14:27:09.686Z,99545.38
2022-08-14T14:29:50.728Z,99535.66
2022-08-14T14:32:22.289Z,99536.84
2022-08-14T14:34:48.578Z,99534.56
2022-08-14T14:37:15.391Z,99534.13
2022-08-14T14:40:52.591Z,99532.34
2022-08-14T14:42:32.060Z,99526.44
2022-08-14T14:44:58.936Z,99533.06
2022-08-14T14:47:25.476Z,99527.53
2022-08-14T14:49:55.220Z,99522.00
2022-08-14T14:52:26.891Z,99524.38
2022-08-14T14:54:54.238Z,99529.47
2022-08-14T14:57:21.057Z,99522.28
2022-08-14T14:59:47.881Z,99516.22
2022-08-14T15:02:16.486Z,99519.28
2022-08-14T15:04:44.315Z,99512.00
2022-08-14T15:07:10.678Z,99522.59
2022-08-14T15:09:38.978Z,99519.75
2022-08-14T15:12:34.292Z,99518.25
2022-08-14T15:14:55.328Z,99509.13
2022-08-14T15:17:23.785Z,99510.72
2022-08-14T15:19:56.364Z,99512.50
2022-08-14T15:22:25.197Z,99503.75
2022-08-14T15:24:51.746Z,99504.06
2022-08-14T15:27:26.298Z,99497.47
2022-08-14T15:29:53.207Z,99503.72
2022-08-14T15:32:23.027Z,99500.59
2022-08-14T15:34:51.801Z,99497.09
2022-08-14T15:37:19.395Z,99490.72
2022-08-14T15:39:45.766Z,99482.44
2022-08-14T15:42:15.794Z,99482.53
2022-08-14T15:44:44.720Z,99477.34
2022-08-14T15:47:28.167Z,99485.81
2022-08-14T15:49:59.192Z,99484.53
2022-08-14T15:52:32.996Z,99484.91
2022-08-14T15:55:02.792Z,99469.81
2022-08-14T15:57:30.655Z,99475.84
2022-08-14T16:00:39.963Z,99466.63
2022-08-14T16:03:03.082Z,99471.84
2022-08-14T16:05:29.401Z,99467.66
2022-08-14T16:08:05.007Z,99477.34
2022-08-14T16:10:51.207Z,99473.03
2022-08-14T16:13:22.925Z,99470.66
2022-08-14T16:16:49.204Z,99469.31
2022-08-14T16:18:51.370Z,99469.66
2022-08-14T16:21:17.662Z,99469.47
2022-08-14T16:23:46.960Z,99468.56
2022-08-14T16:26:20.401Z,99469.63
2022-08-14T16:29:02.516Z,99466.13
2022-08-14T16:34:46.802Z,99460.38
2022-08-14T16:37:03.090Z,99458.94
2022-08-14T16:39:29.469Z,99456.94
2022-08-14T16:41:59.222Z,99453.41
2022-08-14T16:44:32.013Z,99452.41
2022-08-14T16:47:00.250Z,99445.06
2022-08-14T16:50:02.941Z,99441.53
2022-08-14T16:52:25.434Z,99442.38
2022-08-14T16:55:00.074Z,99442.13
2022-08-14T16:57:26.406Z,99443.72
2022-08-14T16:59:58.894Z,99444.16
2022-08-14T17:02:25.499Z,99429.81
2022-08-14T17:04:52.726Z,99428.66
2022-08-14T17:07:19.957Z,99435.63
2022-08-14T17:09:53.077Z,99426.56
2022-08-14T17:12:33.989Z,99422.31
2022-08-14T17:15:09.867Z,99425.50
2022-08-14T17:17:37.327Z,99425.81
2022-08-14T17:20:25.049Z,99433.06
2022-08-14T17:22:51.800Z,99415.25
2022-08-14T17:25:18.256Z,99420.09
2022-08-14T17:27:49.301Z,99423.44
2022-08-14T17:30:31.819Z,99424.03
2022-08-14T17:33:03.319Z,99415.69
2022-08-14T17:35:58.652Z,99417.00
2022-08-14T17:38:38.735Z,99418.66
2022-08-14T17:41:21.866Z,99420.72
2022-08-14T17:46:23.824Z,99422.97
2022-08-14T17:49:14.295Z,99423.41
2022-08-14T17:51:38.530Z,99427.94
2022-08-14T17:54:22.792Z,99417.88
2022-08-14T17:57:01.362Z,99420.03
2022-08-14T17:59:27.659Z,99422.22
2022-08-14T18:01:54.614Z,99428.34
2022-08-14T18:04:28.797Z,99427.41
2022-08-14T18:07:16.114Z,99423.94
2022-08-14T18:09:57.201Z,99440.25
2022-08-14T18:12:31.985Z,99434.97
2022-08-14T18:15:01.264Z,99436.66
2022-08-14T18:17:35.640Z,99430.09
2022-08-14T18:20:02.300Z,99425.88
2022-08-14T18:22:49.654Z,99424.31
2022-08-14T18:25:19.199Z,99423.94
2022-08-14T18:27:49.138Z,99426.44
2022-08-14T18:30:31.987Z,99428.72
2022-08-14T18:33:04.106Z,99424.91
2022-08-14T18:35:45.638Z,99423.47
2022-08-14T18:38:26.429Z,99428.47
2022-08-14T18:40:58.998Z,99428.00
2022-08-14T18:43:25.311Z,99428.25
2022-08-14T18:45:52.131Z,99427.38
2022-08-14T18:48:19.063Z,99432.75
2022-08-14T18:50:45.644Z,99445.75
2022-08-14T18:53:12.795Z,99439.78
2022-08-14T18:55:53.135Z,99443.81
2022-08-14T18:58:29.597Z,99436.50
2022-08-14T19:00:58.923Z,99435.75
2022-08-14T19:03:29.107Z,99436.78
2022-08-14T19:05:55.400Z,99433.06
2022-08-14T19:08:25.215Z,99439.41
2022-08-14T19:10:51.697Z,99439.97
2022-08-14T19:13:20.402Z,99438.38
2022-08-14T19:15:56.563Z,99430.38
2022-08-14T19:18:26.729Z,99445.56
2022-08-14T19:20:55.336Z,99443.03
2022-08-14T19:23:43.886Z,99452.78
2022-08-14T19:26:36.820Z,99451.97
2022-08-14T19:28:58.377Z,99454.78
2022-08-14T19:31:37.129Z,99449.75
2022-08-14T19:34:08.999Z,99450.66
2022-08-14T19:36:55.454Z,99449.91
2022-08-14T19:39:21.967Z,99447.00
2022-08-14T19:41:51.787Z,99440.56
2022-08-14T19:44:19.184Z,99449.69
2022-08-14T19:46:59.711Z,99450.94
2022-08-14T19:50:08.617Z,99447.59
2022-08-14T19:52:17.574Z,99448.06
2022-08-14T19:54:47.358Z,99446.38
2022-08-14T19:57:13.656Z,99446.81
2022-08-14T19:59:57.255Z,99453.47
2022-08-14T20:02:25.156Z,99452.81
2022-08-14T20:04:57.675Z,99458.47
2022-08-14T20:07:24.439Z,99457.78
2022-08-14T20:11:05.840Z,99453.50
2022-08-14T20:12:57.753Z,99450.59
2022-08-14T20:15:24.516Z,99452.66
2022-08-14T20:17:52.680Z,99457.78
2022-08-14T20:20:21.028Z,99453.38
2022-08-14T20:22:58.653Z,99447.44
2022-08-14T20:25:28.285Z,99451.69
2022-08-14T20:27:59.895Z,99450.41
2022-08-14T20:30:33.037Z,99448.09
2022-08-14T20:33:01.471Z,99454.06
2022-08-14T20:35:35.210Z,99457.47
2022-08-14T20:38:30.252Z,99449.03
2022-08-14T20:40:50.829Z,99448.03
2022-08-14T20:43:35.759Z,99447.63
2022-08-14T21:00:33.784Z,99446.13
2022-08-14T21:03:00.866Z,99448.91
2022-08-14T21:05:33.735Z,99452.72
2022-08-14T21:08:08.471Z,99449.56
2022-08-14T21:10:47.064Z,99447.28
2022-08-14T21:13:52.611Z,99442.25
2022-08-14T21:16:03.710Z,99437.63
2022-08-14T21:18:30.605Z,99433.84
2022-08-14T21:20:58.119Z,99435.34
2022-08-14T21:23:24.447Z,99423.34
2022-08-14T21:25:53.896Z,99428.84
2022-08-14T21:28:30.632Z,99429.94
2022-08-14T21:31:01.901Z,99429.25
2022-08-14T21:33:28.830Z,99429.28
2022-08-14T21:35:55.822Z,99423.59
2022-08-14T21:38:22.250Z,99417.13
2022-08-14T21:41:01.082Z,99422.41
2022-08-14T21:43:27.379Z,99428.31
2022-08-14T21:45:57.553Z,99423.28
2022-08-14T21:48:25.216Z,99422.03
2022-08-14T21:51:01.015Z,99418.84
2022-08-14T21:53:58.358Z,99411.91
2022-08-14T21:56:37.322Z,99412.75
2022-08-14T21:59:05.949Z,99403.69
2022-08-14T22:02:01.218Z,99411.47
2022-08-14T22:04:33.637Z,99409.19
2022-08-14T22:07:01.039Z,99407.94
2022-08-14T22:09:36.137Z,99408.34
2022-08-14T22:12:03.208Z,99406.63
2022-08-14T22:14:33.312Z,99415.28
2022-08-14T22:17:12.969Z,99406.44
2022-08-14T22:19:47.310Z,99414.25
2022-08-14T22:22:21.512Z,99403.31
2022-08-14T22:24:54.086Z,99403.50
2022-08-14T22:27:27.348Z,99398.25
2022-08-14T22:29:58.627Z,99396.97
2022-08-14T22:32:35.183Z,99398.88
2022-08-14T22:35:11.307Z,99396.97
2022-08-14T22:37:39.582Z,99406.25
2022-08-14T22:40:54.605Z,99405.59
2022-08-14T22:43:00.399Z,99396.72
2022-08-14T22:45:36.522Z,99394.94
2022-08-14T22:48:05.037Z,99397.34
2022-08-14T22:50:33.563Z,99409.75
2022-08-14T22:53:00.252Z,99408.53
2022-08-14T22:55:27.326Z,99406.66
2022-08-14T22:57:53.546Z,99407.06
2022-08-14T23:00:20.420Z,99397.81
2022-08-14T23:02:57.248Z,99408.53
2022-08-14T23:05:24.329Z,99406.16
2022-08-14T23:08:56.466Z,99399.84
2022-08-14T23:10:52.941Z,99395.47
2022-08-14T23:13:20.108Z,99399.44
2022-08-14T23:15:47.125Z,99398.16
2022-08-14T23:18:13.461Z,99394.78
2022-08-14T23:20:42.301Z,99395.81
2022-08-14T23:23:10.680Z,99395.16
2022-08-14T23:25:57.978Z,99389.09
2022-08-14T23:28:34.445Z,99383.00
2022-08-14T23:31:10.145Z,99390.09
2022-08-14T23:33:36.451Z,99378.97
2022-08-14T23:36:32.783Z,99384.63
2022-08-14T23:39:00.183Z,99378.69
2022-08-14T23:41:26.496Z,99378.66
2022-08-14T23:44:12.783Z,99374.19
2022-08-14T23:46:39.588Z,99368.91
2022-08-14T23:49:05.963Z,99374.19
2022-08-14T23:51:36.325Z,99368.78
2022-08-14T23:54:02.989Z,99365.19
2022-08-14T23:56:31.832Z,99364.59
2022-08-14T23:58:58.720Z,99355.47
